Time;durP1;ratioP1;P1;durP2;ratioP2;P2;SDS_P1;SDS_P2;PMS_P1;PMS_P2;Temp;Humidity;BMP_temperature;BMP_pressure;BME280_temperature;BME280_humidity;BME280_pressure;Samples;Min_cycle;Max_cycle;Signal;HPM_P1;HPM_P2
2022/01/27 00:01:07;;;;;;;36.83;25.77;;;5.50;99.90;;;;;;5018927;28;20049;-68
2022/01/27 00:03:45;;;;;;;39.58;23.90;;;5.50;99.90;;;;;;5021134;28;20033;-68
2022/01/27 00:06:11;;;;;;;37.75;24.10;;;5.40;99.90;;;;;;5017185;28;20085;-68
2022/01/27 00:11:09;;;;;;;38.10;25.25;;;5.50;99.90;;;;;;5021476;28;20056;-68
2022/01/27 00:13:44;;;;;;;35.33;24.00;;;5.50;99.90;;;;;;5016369;28;20079;-67
2022/01/27 00:16:16;;;;;;;37.92;24.27;;;5.50;99.90;;;;;;5001296;28;20069;-67
2022/01/27 00:18:47;;;;;;;40.30;25.67;;;5.50;99.90;;;;;;5018975;28;20052;-67
2022/01/27 00:21:14;;;;;;;45.10;24.48;;;5.50;99.90;;;;;;5019846;28;20128;-67
2022/01/27 00:23:41;;;;;;;35.10;23.75;;;5.50;99.90;;;;;;5019059;28;20052;-67
2022/01/27 00:26:08;;;;;;;38.45;25.42;;;5.60;99.90;;;;;;5016216;28;20045;-67
2022/01/27 00:28:34;;;;;;;38.97;25.80;;;5.50;99.90;;;;;;5019452;28;20786;-67
2022/01/27 00:31:00;;;;;;;35.75;25.55;;;5.50;99.90;;;;;;5017508;28;20087;-67
2022/01/27 00:33:26;;;;;;;35.00;24.42;;;5.50;99.90;;;;;;5017732;28;20033;-68
2022/01/27 00:35:51;;;;;;;32.95;23.15;;;5.50;99.90;;;;;;5022257;28;20038;-68
2022/01/27 00:38:17;;;;;;;33.60;23.55;;;5.50;99.90;;;;;;5019748;28;20046;-68
2022/01/27 00:40:44;;;;;;;37.00;23.67;;;5.50;99.90;;;;;;5002246;28;20049;-68
2022/01/27 00:43:09;;;;;;;35.47;23.38;;;5.50;99.90;;;;;;5021075;28;20042;-68
2022/01/27 00:45:36;;;;;;;36.17;24.25;;;5.60;99.90;;;;;;5019727;28;20403;-68
2022/01/27 00:48:04;;;;;;;37.63;24.25;;;5.60;99.90;;;;;;5019823;28;20042;-68
2022/01/27 00:50:32;;;;;;;33.78;22.45;;;5.60;99.90;;;;;;5018554;28;20048;-68
2022/01/27 00:53:01;;;;;;;35.22;23.05;;;5.50;99.90;;;;;;5018135;28;20481;-68
2022/01/27 00:55:30;;;;;;;33.90;22.05;;;5.50;99.90;;;;;;5003773;28;20176;-68
2022/01/27 00:58:08;;;;;;;34.95;23.08;;;5.60;99.90;;;;;;5016970;28;20049;-68
2022/01/27 01:00:39;;;;;;;34.47;23.25;;;5.60;99.90;;;;;;5019656;28;20041;-68
2022/01/27 01:03:24;;;;;;;32.30;23.17;;;5.60;99.90;;;;;;5018193;28;20096;-68
2022/01/27 01:15:56;;;;;;;33.97;21.02;;;5.50;99.90;;;;;;5017726;28;20492;-68
2022/01/27 01:29:55;;;;;;;30.88;19.75;;;5.50;99.90;;;;;;5019077;28;20052;-68
2022/01/27 01:35:05;;;;;;;;;;;5.60;99.90;;;;;;5017109;28;20072;-68
2022/01/27 01:37:31;;;;;;;31.00;19.45;;;5.60;99.90;;;;;;5015510;28;20601;-68
2022/01/27 01:39:56;;;;;;;29.85;19.67;;;5.60;99.90;;;;;;5021373;28;20092;-68
2022/01/27 01:42:22;;;;;;;32.03;18.75;;;5.60;99.90;;;;;;5019855;28;20037;-68
2022/01/27 01:44:49;;;;;;;32.95;21.40;;;5.60;99.90;;;;;;5018487;28;20115;-68
2022/01/27 01:47:15;;;;;;;29.95;19.92;;;5.70;99.90;;;;;;5023026;28;20033;-68
2022/01/27 01:49:41;;;;;;;28.95;20.50;;;5.70;99.90;;;;;;5022409;28;20037;-68
2022/01/27 01:52:08;;;;;;;32.22;20.02;;;5.70;99.90;;;;;;5018586;28;20064;-68
2022/01/27 01:54:34;;;;;;;31.73;20.35;;;5.70;99.90;;;;;;5022860;28;20124;-68
2022/01/27 01:57:01;;;;;;;31.15;19.67;;;5.70;99.90;;;;;;5021639;28;20037;-68
2022/01/27 01:59:26;;;;;;;30.80;20.52;;;5.70;99.90;;;;;;5018586;28;20038;-68
2022/01/27 02:01:52;;;;;;;32.00;21.38;;;5.70;99.90;;;;;;5025126;28;20060;-68
2022/01/27 02:04:18;;;;;;;31.77;21.02;;;5.70;99.90;;;;;;5021771;28;20030;-68
2022/01/27 02:06:50;;;;;;;29.73;20.75;;;5.70;99.90;;;;;;5020375;28;20520;-68
2022/01/27 02:09:35;;;;;;;30.95;19.60;;;5.60;99.90;;;;;;5020909;28;20049;-68
2022/01/27 02:18:07;;;;;;;31.17;21.95;;;5.60;99.90;;;;;;5002571;28;20054;-68
2022/01/27 02:20:36;;;;;;;30.15;19.80;;;5.60;99.90;;;;;;5018568;28;20463;-68
2022/01/27 02:23:08;;;;;;;39.10;21.60;;;5.50;99.90;;;;;;5020060;28;20402;-68
2022/01/27 02:25:35;;;;;;;34.10;21.75;;;5.50;99.90;;;;;;5021807;28;20068;-68
2022/01/27 02:28:01;;;;;;;32.95;20.70;;;5.40;99.90;;;;;;5020240;28;20136;-68
2022/01/27 02:30:27;;;;;;;32.65;21.65;;;5.40;99.90;;;;;;5019959;28;20589;-68
2022/01/27 02:32:54;;;;;;;31.25;19.65;;;5.40;99.90;;;;;;5019675;28;20497;-68
2022/01/27 02:35:24;;;;;;;32.58;21.48;;;5.40;99.90;;;;;;5021025;28;20049;-68
2022/01/27 02:37:50;;;;;;;33.10;22.95;;;5.30;99.90;;;;;;5017491;28;20517;-68
2022/01/27 02:40:26;;;;;;;34.00;21.20;;;5.40;99.90;;;;;;5021582;28;20050;-68
2022/01/27 02:42:53;;;;;;;32.35;21.60;;;5.40;99.90;;;;;;5019369;28;20044;-68
2022/01/27 02:45:48;;;;;;;31.85;20.90;;;5.40;99.90;;;;;;5021871;28;20568;-68
2022/01/27 02:48:14;;;;;;;32.38;23.50;;;5.40;99.90;;;;;;5014586;28;20474;-67
2022/01/27 02:50:42;;;;;;;35.40;21.27;;;5.40;99.90;;;;;;5020547;28;20037;-68
2022/01/27 02:53:08;;;;;;;35.67;22.48;;;5.30;99.90;;;;;;5016139;28;20049;-68
2022/01/27 02:55:33;;;;;;;33.22;22.80;;;5.40;99.90;;;;;;5023378;28;20060;-68
2022/01/27 02:57:59;;;;;;;32.83;22.17;;;5.30;99.90;;;;;;5021189;28;20108;-68
2022/01/27 03:00:25;;;;;;;34.42;23.00;;;5.40;99.90;;;;;;5021893;28;20362;-68
2022/01/27 03:02:51;;;;;;;35.22;23.60;;;5.40;99.90;;;;;;5018515;28;20041;-68
2022/01/27 03:05:18;;;;;;;35.00;24.17;;;5.40;99.90;;;;;;5036970;28;20383;-68
2022/01/27 03:07:47;;;;;;;34.95;23.02;;;5.40;99.90;;;;;;5020228;28;20037;-68
2022/01/27 03:10:18;;;;;;;38.22;23.88;;;5.40;99.90;;;;;;5004499;28;20038;-68
2022/01/27 03:12:46;;;;;;;36.15;22.98;;;5.40;99.90;;;;;;5021817;28;20113;-68
2022/01/27 03:15:12;;;;;;;39.95;23.35;;;5.40;99.90;;;;;;5019034;28;20041;-68
2022/01/27 03:17:41;;;;;;;33.42;21.25;;;5.50;99.90;;;;;;5004579;28;20120;-68
2022/01/27 03:20:09;;;;;;;34.53;23.55;;;5.50;99.90;;;;;;5020773;28;20038;-68
2022/01/27 03:22:34;;;;;;;38.13;23.85;;;5.50;99.90;;;;;;5019222;28;20052;-68
2022/01/27 03:25:00;;;;;;;35.28;24.10;;;5.50;99.90;;;;;;5017983;28;20049;-68
2022/01/27 03:27:27;;;;;;;37.05;23.30;;;5.50;99.90;;;;;;5020043;28;20432;-68
2022/01/27 03:29:53;;;;;;;34.20;22.05;;;5.50;99.90;;;;;;5018462;28;20041;-68
2022/01/27 03:32:19;;;;;;;38.60;25.27;;;5.60;99.90;;;;;;5020236;28;20040;-68
2022/01/27 03:34:45;;;;;;;42.30;24.27;;;5.50;99.90;;;;;;5021178;28;20026;-68
2022/01/27 03:37:11;;;;;;;36.10;25.13;;;5.60;99.90;;;;;;5017077;28;20104;-68
2022/01/27 03:39:38;;;;;;;38.40;25.20;;;5.50;99.90;;;;;;5019532;28;20029;-68
2022/01/27 03:42:05;;;;;;;35.78;24.02;;;5.50;99.90;;;;;;5022262;28;20049;-68
2022/01/27 03:44:31;;;;;;;38.05;25.33;;;5.50;99.90;;;;;;5020906;28;20115;-68
2022/01/27 03:46:57;;;;;;;37.60;24.48;;;5.40;99.90;;;;;;5018942;28;20065;-68
2022/01/27 03:49:23;;;;;;;40.50;24.23;;;5.50;99.90;;;;;;5015566;28;20120;-68
2022/01/27 03:51:48;;;;;;;37.65;25.05;;;5.40;99.90;;;;;;5022283;28;20368;-68
2022/01/27 03:54:15;;;;;;;40.92;26.13;;;5.40;99.90;;;;;;5017041;28;20042;-67
2022/01/27 03:56:41;;;;;;;42.53;25.50;;;5.40;99.90;;;;;;5021997;28;20427;-67
2022/01/27 03:59:07;;;;;;;41.50;24.52;;;5.40;99.90;;;;;;5018772;28;20044;-67
2022/01/27 04:01:33;;;;;;;33.15;22.45;;;5.40;99.90;;;;;;5021690;28;20049;-67
2022/01/27 04:04:00;;;;;;;36.45;23.55;;;5.40;99.90;;;;;;5019097;28;20034;-67
2022/01/27 04:06:38;;;;;;;38.63;24.42;;;5.40;99.90;;;;;;5015796;28;20052;-68
2022/01/27 04:09:06;;;;;;;34.80;22.25;;;5.50;99.90;;;;;;5017268;28;20450;-68
2022/01/27 04:11:32;;;;;;;39.95;24.75;;;5.50;99.90;;;;;;5021080;28;20037;-67
2022/01/27 04:13:58;;;;;;;38.03;25.20;;;5.50;99.90;;;;;;5019823;28;20033;-68
2022/01/27 04:16:24;;;;;;;40.08;24.67;;;5.50;99.90;;;;;;5020678;28;20065;-68
2022/01/27 04:18:50;;;;;;;40.17;25.73;;;5.60;99.90;;;;;;5015640;28;20041;-68
2022/01/27 04:21:16;;;;;;;40.67;24.95;;;5.50;99.90;;;;;;5022381;28;20073;-68
2022/01/27 04:23:42;;;;;;;38.92;25.15;;;5.40;99.90;;;;;;5016320;28;20120;-68
2022/01/27 04:26:10;;;;;;;37.55;24.33;;;5.50;99.90;;;;;;5017271;28;20502;-68
2022/01/27 04:28:37;;;;;;;40.53;24.67;;;5.50;99.90;;;;;;5019093;28;20107;-68
2022/01/27 04:31:07;;;;;;;40.13;24.45;;;5.50;99.90;;;;;;5018052;28;20060;-68
2022/01/27 04:33:34;;;;;;;39.10;24.20;;;5.70;99.90;;;;;;5018176;28;20045;-68
2022/01/27 04:36:05;;;;;;;38.83;24.23;;;5.60;99.90;;;;;;5017402;28;20038;-68
2022/01/27 04:41:43;;;;;;;34.47;23.50;;;5.60;99.90;;;;;;5012249;28;20045;-68
2022/01/27 04:46:50;;;;;;;35.25;23.50;;;5.60;99.90;;;;;;5017280;28;20464;-67
2022/01/27 04:49:16;;;;;;;32.65;22.90;;;5.60;99.90;;;;;;5017368;28;20128;-68
2022/01/27 04:51:42;;;;;;;35.80;21.73;;;5.60;99.90;;;;;;5018487;28;20569;-68
2022/01/27 04:54:16;;;;;;;34.83;23.13;;;5.60;99.90;;;;;;5017230;28;20081;-68
2022/01/27 04:56:42;;;;;;;40.75;22.55;;;5.70;99.90;;;;;;5020835;28;20139;-68
2022/01/27 04:59:19;;;;;;;35.47;23.30;;;5.70;99.90;;;;;;5018382;28;20041;-68
2022/01/27 05:01:53;;;;;;;37.70;23.05;;;5.70;99.90;;;;;;5019012;28;20352;-68
2022/01/27 05:04:21;;;;;;;38.53;21.27;;;5.70;99.90;;;;;;5019405;28;20041;-68
2022/01/27 05:06:51;;;;;;;34.95;22.08;;;5.80;99.90;;;;;;5019355;28;20057;-68
2022/01/27 05:09:17;;;;;;;36.70;22.65;;;5.80;99.90;;;;;;5020512;28;20048;-68
2022/01/27 05:12:35;;;;;;;37.25;22.77;;;5.80;99.90;;;;;;5015285;28;20042;-68
2022/01/27 05:14:29;;;;;;;36.45;21.73;;;5.70;99.90;;;;;;5030184;28;20152;-68
2022/01/27 05:16:54;;;;;;;40.28;23.13;;;5.70;99.90;;;;;;5022955;28;20121;-68
2022/01/27 05:19:20;;;;;;;34.03;20.25;;;5.80;99.90;;;;;;5017789;28;20033;-68
2022/01/27 05:21:46;;;;;;;39.28;23.45;;;5.80;99.90;;;;;;5019687;28;20113;-68
2022/01/27 05:24:12;;;;;;;37.05;21.48;;;5.80;99.90;;;;;;5022978;28;20133;-68
2022/01/27 05:26:39;;;;;;;36.28;21.00;;;5.80;99.90;;;;;;5021932;28;20045;-68
2022/01/27 05:29:08;;;;;;;37.10;20.75;;;5.90;99.90;;;;;;5023486;28;20033;-68
2022/01/27 05:31:34;;;;;;;35.72;22.08;;;5.80;99.90;;;;;;5026118;28;20052;-68
2022/01/27 05:34:00;;;;;;;38.05;21.95;;;5.90;99.90;;;;;;5021904;28;20045;-68
2022/01/27 05:36:26;;;;;;;35.15;22.30;;;5.80;99.90;;;;;;5018113;28;20049;-68
2022/01/27 05:38:51;;;;;;;34.78;21.85;;;5.90;99.90;;;;;;5025054;28;20532;-68
2022/01/27 05:41:17;;;;;;;37.13;20.30;;;5.90;99.90;;;;;;5022148;28;20037;-68
2022/01/27 05:43:44;;;;;;;33.10;20.65;;;5.90;99.90;;;;;;5021483;28;20402;-68
2022/01/27 05:46:10;;;;;;;35.85;19.38;;;5.90;99.90;;;;;;5023116;28;20042;-68
2022/01/27 05:48:36;;;;;;;33.65;19.08;;;6.00;99.90;;;;;;5021353;28;20056;-68
2022/01/27 05:51:02;;;;;;;35.85;19.90;;;6.00;99.90;;;;;;5019863;28;20413;-67
2022/01/27 05:53:32;;;;;;;34.08;19.73;;;6.00;99.90;;;;;;5019406;28;20078;-67
2022/01/27 05:55:59;;;;;;;33.25;19.48;;;6.00;99.90;;;;;;5022059;28;20144;-68
2022/01/27 05:58:25;;;;;;;32.22;19.63;;;6.00;99.90;;;;;;5019733;28;20041;-68
2022/01/27 06:00:51;;;;;;;31.63;19.48;;;6.00;99.90;;;;;;5022481;28;20038;-68
2022/01/27 06:03:17;;;;;;;34.92;20.05;;;6.00;99.90;;;;;;5021934;28;20038;-67
2022/01/27 06:05:43;;;;;;;39.78;20.27;;;6.00;99.90;;;;;;5019100;28;20034;-67
2022/01/27 06:08:09;;;;;;;37.42;20.00;;;6.00;99.90;;;;;;5019354;28;20450;-67
2022/01/27 06:10:34;;;;;;;35.25;21.05;;;5.90;99.90;;;;;;5022091;28;20045;-67
2022/01/27 06:13:00;;;;;;;40.63;22.40;;;5.90;99.90;;;;;;5024250;28;20042;-67
2022/01/27 06:15:27;;;;;;;37.35;20.80;;;5.90;99.90;;;;;;5023622;28;20056;-67
2022/01/27 06:17:53;;;;;;;36.17;19.95;;;5.80;99.90;;;;;;5022481;28;20365;-67
2022/01/27 06:20:20;;;;;;;42.03;21.80;;;5.80;99.90;;;;;;5023091;28;20163;-66
2022/01/27 06:22:46;;;;;;;39.72;21.10;;;5.80;99.90;;;;;;5018891;28;20056;-67
2022/01/27 06:25:14;;;;;;;44.20;22.13;;;5.80;99.90;;;;;;5024584;28;20376;-67
2022/01/27 06:27:39;;;;;;;46.13;21.20;;;5.70;99.90;;;;;;5019852;28;20045;-66
2022/01/27 06:30:07;;;;;;;38.80;22.10;;;5.80;99.90;;;;;;5018968;28;20048;-66
2022/01/27 06:32:34;;;;;;;43.97;22.55;;;5.80;99.90;;;;;;5022830;28;20394;-66
2022/01/27 06:35:04;;;;;;;38.92;22.15;;;5.80;99.90;;;;;;5021241;28;20101;-66
2022/01/27 06:37:31;;;;;;;38.85;22.02;;;5.80;99.90;;;;;;5016341;28;20032;-66
2022/01/27 06:39:58;;;;;;;38.90;21.30;;;5.80;99.90;;;;;;5022543;28;20059;-65
2022/01/27 06:42:24;;;;;;;41.00;22.48;;;5.70;99.90;;;;;;5018716;28;20053;-65
2022/01/27 06:44:50;;;;;;;41.90;20.80;;;5.70;99.90;;;;;;5024365;28;20077;-65
2022/01/27 06:47:15;;;;;;;40.97;21.23;;;5.70;99.90;;;;;;5022536;28;20134;-66
2022/01/27 06:49:41;;;;;;;36.55;20.20;;;5.70;99.90;;;;;;5020550;28;20049;-66
2022/01/27 06:52:07;;;;;;;36.17;20.48;;;5.70;99.90;;;;;;5026329;28;20040;-65
2022/01/27 06:54:33;;;;;;;35.38;20.40;;;5.70;99.90;;;;;;5021643;28;20045;-66
2022/01/27 06:57:00;;;;;;;38.60;22.45;;;5.70;99.90;;;;;;5036188;28;20624;-66
2022/01/27 06:59:26;;;;;;;43.28;20.98;;;5.70;99.90;;;;;;5023921;28;20081;-66
2022/01/27 07:01:51;;;;;;;39.35;19.50;;;5.70;99.90;;;;;;5017622;28;20167;-66
2022/01/27 07:04:17;;;;;;;35.22;17.95;;;5.70;99.90;;;;;;5021649;28;20160;-67
2022/01/27 07:06:43;;;;;;;36.38;20.02;;;5.70;99.90;;;;;;5018593;28;20401;-66
2022/01/27 07:09:09;;;;;;;31.67;18.13;;;5.70;99.90;;;;;;5021453;28;20116;-66
2022/01/27 07:11:34;;;;;;;33.10;18.23;;;5.70;99.90;;;;;;5018394;28;20103;-66
2022/01/27 07:14:00;;;;;;;36.10;19.40;;;5.80;99.90;;;;;;5020856;28;20576;-66
2022/01/27 07:16:26;;;;;;;31.00;18.35;;;5.70;99.90;;;;;;5017459;28;20558;-66
2022/01/27 07:18:52;;;;;;;34.83;17.02;;;5.70;99.90;;;;;;5020911;28;20437;-66
2022/01/27 07:21:19;;;;;;;32.55;17.63;;;5.80;99.90;;;;;;5024861;28;20045;-66
2022/01/27 07:23:45;;;;;;;30.80;17.42;;;5.80;99.90;;;;;;5016638;28;20501;-66
2022/01/27 07:26:11;;;;;;;29.25;17.60;;;5.80;99.90;;;;;;5018041;28;20048;-66
2022/01/27 07:28:37;;;;;;;28.80;17.13;;;5.80;99.90;;;;;;5018136;28;20038;-66
2022/01/27 07:31:03;;;;;;;30.58;15.32;;;5.90;99.90;;;;;;5020138;28;20037;-66
2022/01/27 07:33:29;;;;;;;31.35;15.38;;;5.90;99.90;;;;;;5017079;28;20038;-66
2022/01/27 07:35:54;;;;;;;30.65;14.95;;;5.90;99.90;;;;;;5022878;28;20482;-65
2022/01/27 07:38:23;;;;;;;30.88;14.82;;;6.00;99.90;;;;;;5020313;28;20474;-65
2022/01/27 07:40:49;;;;;;;24.42;13.50;;;6.10;99.90;;;;;;5019382;28;20045;-65
2022/01/27 07:43:15;;;;;;;25.52;12.70;;;6.10;99.90;;;;;;5016517;28;20116;-66
2022/01/27 07:45:41;;;;;;;23.30;12.52;;;6.20;99.90;;;;;;5017140;28;20097;-65
2022/01/27 07:48:07;;;;;;;22.92;11.38;;;6.20;99.90;;;;;;5021899;28;20074;-66
2022/01/27 07:50:33;;;;;;;22.08;12.65;;;6.30;99.90;;;;;;5015879;28;20038;-66
2022/01/27 07:52:59;;;;;;;24.35;12.65;;;6.40;99.90;;;;;;5018395;28;20409;-65
2022/01/27 07:55:24;;;;;;;26.83;12.85;;;6.40;99.90;;;;;;5019514;28;20061;-66
2022/01/27 07:57:51;;;;;;;26.20;13.82;;;6.40;99.90;;;;;;5023018;28;20046;-66
2022/01/27 08:00:17;;;;;;;27.48;13.15;;;6.40;99.90;;;;;;5020701;28;20049;-66
2022/01/27 08:02:45;;;;;;;26.35;13.27;;;6.50;99.90;;;;;;5013944;28;20042;-66
2022/01/27 08:05:11;;;;;;;26.38;14.02;;;6.50;99.90;;;;;;5016801;28;20069;-66
2022/01/27 08:07:37;;;;;;;32.88;14.02;;;6.60;99.90;;;;;;5020284;28;20045;-66
2022/01/27 08:10:03;;;;;;;29.85;15.25;;;6.60;99.90;;;;;;5006860;28;20046;-66
2022/01/27 08:12:28;;;;;;;28.35;15.15;;;6.60;99.90;;;;;;5021958;28;20041;-66
2022/01/27 08:14:54;;;;;;;36.15;15.50;;;6.60;99.90;;;;;;5016234;28;20077;-66
2022/01/27 08:17:20;;;;;;;33.15;16.33;;;6.60;99.90;;;;;;5024419;28;20040;-66
2022/01/27 08:19:46;;;;;;;34.50;16.23;;;6.60;99.90;;;;;;5015312;28;21029;-66
2022/01/27 08:22:11;;;;;;;42.05;16.67;;;6.70;99.90;;;;;;5021259;28;20119;-66
2022/01/27 08:24:38;;;;;;;38.15;16.50;;;6.70;99.90;;;;;;5016346;28;20034;-66
2022/01/27 08:27:06;;;;;;;38.90;15.65;;;6.70;99.90;;;;;;5020498;28;20498;-66
2022/01/27 08:29:38;;;;;;;36.70;15.23;;;6.70;99.90;;;;;;5019788;28;20109;-66
2022/01/27 08:32:07;;;;;;;42.85;16.05;;;6.80;99.90;;;;;;5022764;28;20045;-66
2022/01/27 08:34:36;;;;;;;33.33;13.73;;;6.80;99.90;;;;;;5020908;28;20085;-66
2022/01/27 08:37:08;;;;;;;43.08;15.95;;;6.80;99.90;;;;;;5020094;28;20104;-66
2022/01/27 08:39:34;;;;;;;38.60;15.20;;;6.80;99.90;;;;;;5026418;28;20041;-66
2022/01/27 08:42:01;;;;;;;39.28;15.20;;;6.80;99.90;;;;;;5024820;28;20120;-66
2022/01/27 08:44:26;;;;;;;35.60;13.82;;;6.80;99.90;;;;;;5017798;28;20080;-66
2022/01/27 08:46:52;;;;;;;36.95;14.13;;;6.90;99.90;;;;;;5023268;28;20455;-66
2022/01/27 08:49:21;;;;;;;31.98;13.60;;;6.90;99.90;;;;;;5028891;28;20104;-66
2022/01/27 08:51:47;;;;;;;40.20;13.57;;;6.90;99.90;;;;;;5024252;28;20046;-66
2022/01/27 08:54:13;;;;;;;37.35;13.95;;;7.00;99.90;;;;;;5019487;28;20421;-66
2022/01/27 08:56:39;;;;;;;33.70;13.18;;;7.00;99.90;;;;;;5017566;28;20080;-66
2022/01/27 08:59:05;;;;;;;25.90;12.43;;;7.10;99.90;;;;;;5025182;28;20069;-66
2022/01/27 09:01:30;;;;;;;36.10;13.90;;;7.10;99.90;;;;;;5026214;28;20045;-66
2022/01/27 09:03:56;;;;;;;35.10;13.15;;;7.20;99.90;;;;;;5025959;28;20045;-66
2022/01/27 09:06:22;;;;;;;30.27;12.90;;;7.30;99.90;;;;;;5019616;28;20041;-66
2022/01/27 09:08:50;;;;;;;29.85;11.45;;;7.30;99.90;;;;;;5020201;28;20042;-66
2022/01/27 09:11:16;;;;;;;38.45;12.73;;;7.30;99.90;;;;;;5029756;28;20041;-66
2022/01/27 09:13:42;;;;;;;36.25;12.02;;;7.30;99.90;;;;;;5027561;28;20038;-66
2022/01/27 09:16:09;;;;;;;28.42;11.40;;;7.30;99.90;;;;;;5022860;28;20441;-66
2022/01/27 09:18:36;;;;;;;33.80;11.95;;;7.50;99.90;;;;;;5020539;28;20105;-66
2022/01/27 09:21:07;;;;;;;27.80;10.90;;;7.50;99.90;;;;;;5016972;28;20699;-66
2022/01/27 09:23:33;;;;;;;31.75;10.98;;;7.50;99.90;;;;;;5019843;28;20050;-67
2022/01/27 09:26:05;;;;;;;34.45;11.68;;;7.50;99.90;;;;;;5026893;28;20187;-66
2022/01/27 09:28:31;;;;;;;29.00;9.77;;;7.50;99.90;;;;;;5024891;28;20190;-67
2022/01/27 09:30:56;;;;;;;29.40;9.85;;;7.50;99.90;;;;;;5021707;28;20100;-67
2022/01/27 09:33:23;;;;;;;24.83;10.00;;;7.60;99.90;;;;;;5022016;28;20057;-67
2022/01/27 09:35:49;;;;;;;47.75;26.98;;;7.60;99.90;;;;;;5022310;28;20045;-67
2022/01/27 09:38:16;;;;;;;24.15;9.02;;;7.70;99.90;;;;;;5020829;28;20045;-67
2022/01/27 09:40:43;;;;;;;29.15;8.60;;;7.70;99.90;;;;;;5019347;28;20037;-67
2022/01/27 09:43:08;;;;;;;20.02;8.23;;;7.80;99.90;;;;;;5025169;28;20029;-67
2022/01/27 09:45:39;;;;;;;21.45;8.00;;;7.90;99.90;;;;;;5020916;28;20517;-67
2022/01/27 09:48:13;;;;;;;22.08;7.40;;;8.00;99.90;;;;;;5020770;28;20050;-67
2022/01/27 09:53:10;;;;;;;21.35;7.55;;;8.20;99.90;;;;;;5016725;28;20557;-67
2022/01/27 09:55:37;;;;;;;21.58;7.63;;;8.20;99.90;;;;;;5017922;28;20061;-67
2022/01/27 09:58:04;;;;;;;21.95;7.10;;;8.20;99.90;;;;;;5018430;28;20052;-67
2022/01/27 10:00:30;;;;;;;23.45;6.55;;;8.20;99.90;;;;;;5021923;28;20046;-67
2022/01/27 10:03:05;;;;;;;24.98;7.65;;;8.10;99.90;;;;;;5025502;28;20061;-67
2022/01/27 10:05:32;;;;;;;19.05;6.38;;;8.20;99.90;;;;;;5022567;28;20038;-67
2022/01/27 10:08:11;;;;;;;21.73;6.95;;;8.10;99.90;;;;;;5024079;28;20086;-67
2022/01/27 10:10:41;;;;;;;15.15;5.60;;;8.20;99.90;;;;;;5020056;28;20458;-67
2022/01/27 10:13:08;;;;;;;19.33;6.38;;;8.20;99.90;;;;;;5024137;28;20326;-67
2022/01/27 10:15:42;;;;;;;15.65;5.65;;;8.20;99.90;;;;;;5023381;28;20346;-67
2022/01/27 10:18:27;;;;;;;26.63;5.90;;;8.10;99.90;;;;;;5021203;28;20390;-67
2022/01/27 10:21:04;;;;;;;20.70;5.70;;;8.20;99.90;;;;;;5024886;28;20409;-66
2022/01/27 10:23:33;;;;;;;22.15;6.35;;;8.20;99.90;;;;;;5015077;28;20061;-66
2022/01/27 10:26:11;;;;;;;19.65;5.80;;;8.20;99.90;;;;;;5010255;28;20048;-67
2022/01/27 10:31:24;;;;;;;16.83;5.68;;;8.30;99.90;;;;;;5035376;28;20131;-67
2022/01/27 10:34:03;;;;;;;15.75;5.00;;;8.30;99.90;;;;;;5020836;28;20037;-68
2022/01/27 10:36:40;;;;;;;15.75;5.93;;;8.30;99.90;;;;;;5025369;28;20420;-68
2022/01/27 10:39:08;;;;;;;21.75;5.50;;;8.30;99.90;;;;;;5020579;28;20053;-68
2022/01/27 10:41:37;;;;;;;17.17;4.80;;;8.40;99.90;;;;;;5017458;28;20042;-68
2022/01/27 10:44:06;;;;;;;15.43;4.78;;;8.40;99.90;;;;;;5026228;28;20474;-68
2022/01/27 10:46:33;;;;;;;22.02;5.38;;;8.40;99.90;;;;;;5021109;28;20054;-68
2022/01/27 10:49:04;;;;;;;18.05;5.05;;;8.40;99.90;;;;;;5022377;28;20048;-68
2022/01/27 10:51:38;;;;;;;18.95;5.72;;;8.40;99.90;;;;;;5018782;28;20103;-68
2022/01/27 10:54:06;;;;;;;16.35;5.25;;;8.40;99.90;;;;;;5014013;28;20103;-68
2022/01/27 10:56:37;;;;;;;17.77;5.00;;;8.50;99.90;;;;;;5020446;28;20116;-68
2022/01/27 10:59:15;;;;;;;18.85;5.53;;;8.50;99.90;;;;;;5017186;28;20050;-67
2022/01/27 11:01:47;;;;;;;17.13;4.43;;;8.60;99.90;;;;;;5021694;28;20057;-67
2022/01/27 11:04:14;;;;;;;16.75;5.28;;;8.60;99.90;;;;;;5019409;28;20401;-67
2022/01/27 11:07:01;;;;;;;19.70;4.82;;;8.60;99.90;;;;;;5023560;28;20078;-68
2022/01/27 11:09:29;;;;;;;18.30;4.85;;;8.60;99.90;;;;;;5019873;28;20042;-68
2022/01/27 11:11:56;;;;;;;16.13;4.65;;;8.50;99.90;;;;;;5021404;28;20508;-68
2022/01/27 11:14:25;;;;;;;16.77;5.82;;;8.50;99.90;;;;;;5019449;28;20080;-68
2022/01/27 11:16:57;;;;;;;18.75;4.78;;;8.50;99.90;;;;;;5024407;28;20737;-68
2022/01/27 11:19:52;;;;;;;16.20;4.30;;;8.50;99.90;;;;;;5018489;28;20470;-68
2022/01/27 11:22:42;;;;;;;19.77;4.85;;;8.60;99.90;;;;;;5005336;28;20046;-68
2022/01/27 11:27:46;;;;;;;18.58;3.72;;;8.70;99.90;;;;;;5020259;28;20133;-68
2022/01/27 11:30:41;;;;;;;68.80;47.28;;;8.70;99.90;;;;;;5003337;28;20050;-68
2022/01/27 11:33:15;;;;;;;14.13;4.30;;;8.70;99.90;;;;;;5020955;28;20046;-68
2022/01/27 11:35:41;;;;;;;19.15;4.07;;;8.80;99.90;;;;;;5022802;28;20432;-68
2022/01/27 11:38:08;;;;;;;16.60;3.20;;;8.80;99.90;;;;;;5020162;28;20521;-68
2022/01/27 11:40:41;;;;;;;16.70;3.85;;;8.80;99.90;;;;;;5020481;28;20130;-68
2022/01/27 11:43:10;;;;;;;15.82;3.60;;;8.90;99.90;;;;;;5013409;28;20343;-68
2022/01/27 11:45:45;;;;;;;14.00;3.30;;;8.90;99.90;;;;;;5023433;28;20041;-69
2022/01/27 11:48:21;;;;;;;15.00;3.35;;;8.90;99.90;;;;;;5004487;28;20052;-69
2022/01/27 11:50:54;;;;;;;19.30;4.63;;;8.90;99.90;;;;;;5019803;28;20473;-69
2022/01/27 11:53:32;;;;;;;15.15;3.63;;;8.90;99.90;;;;;;5016030;28;20085;-69
2022/01/27 11:56:06;;;;;;;14.18;3.47;;;8.90;99.90;;;;;;5020131;28;20469;-69
2022/01/27 11:58:43;;;;;;;13.30;3.15;;;8.90;99.90;;;;;;5021940;28;20111;-69
2022/01/27 12:01:17;;;;;;;13.80;3.20;;;8.90;99.90;;;;;;5017664;28;20107;-69
2022/01/27 12:04:02;;;;;;;17.30;3.40;;;8.90;99.90;;;;;;5020148;28;20042;-69
2022/01/27 12:06:32;;;;;;;15.70;3.72;;;9.00;99.90;;;;;;5018358;28;20129;-69
2022/01/27 12:09:31;;;;;;;14.80;3.08;;;9.00;99.90;;;;;;5007543;28;20091;-69
2022/01/27 12:12:13;;;;;;;20.00;3.60;;;9.00;99.90;;;;;;5021245;28;20129;-69
2022/01/27 12:14:41;;;;;;;14.80;3.17;;;9.00;99.90;;;;;;5021339;28;20041;-69
2022/01/27 12:17:09;;;;;;;15.52;3.30;;;9.10;99.90;;;;;;5017118;28;20037;-69
2022/01/27 12:19:56;;;;;;;12.63;2.47;;;9.10;99.90;;;;;;5020236;28;20046;-69
2022/01/27 12:22:28;;;;;;;15.52;2.72;;;9.20;99.90;;;;;;4996196;28;20054;-69
2022/01/27 12:24:59;;;;;;;14.88;3.03;;;9.30;99.90;;;;;;5021464;28;20521;-69
2022/01/27 12:27:27;;;;;;;17.25;3.08;;;9.20;99.90;;;;;;5016688;28;20040;-69
2022/01/27 12:29:55;;;;;;;18.52;2.90;;;9.20;99.90;;;;;;5022189;28;20037;-69
2022/01/27 12:32:23;;;;;;;16.85;4.07;;;9.20;99.90;;;;;;5020760;28;20410;-69
2022/01/27 12:34:56;;;;;;;16.75;3.45;;;9.20;99.90;;;;;;5020121;28;20405;-69
2022/01/27 12:37:24;;;;;;;17.08;3.15;;;9.20;99.90;;;;;;5016355;28;20496;-69
2022/01/27 12:39:59;;;;;;;15.73;2.80;;;9.20;99.90;;;;;;5017623;28;20030;-69
2022/01/27 12:42:32;;;;;;;22.20;3.85;;;9.20;99.90;;;;;;5019267;28;20045;-69
2022/01/27 12:45:05;;;;;;;18.20;3.47;;;9.20;99.90;;;;;;5004209;28;20163;-69
2022/01/27 12:47:32;;;;;;;12.23;2.92;;;9.30;99.90;;;;;;5022703;28;20041;-69
2022/01/27 12:50:08;;;;;;;15.23;2.35;;;9.20;99.90;;;;;;4998462;28;20057;-70
2022/01/27 12:52:40;;;;;;;15.65;2.88;;;9.30;99.90;;;;;;5017590;28;20132;-69
2022/01/27 12:55:08;;;;;;;16.67;2.53;;;9.20;99.90;;;;;;5019567;28;20118;-69
2022/01/27 12:57:34;;;;;;;18.50;3.28;;;9.20;99.90;;;;;;5018838;28;20041;-69
2022/01/27 13:00:03;;;;;;;12.73;2.58;;;9.20;99.90;;;;;;5021296;28;20029;-69
2022/01/27 13:02:29;;;;;;;16.38;2.92;;;9.20;99.90;;;;;;5016609;28;20112;-69
2022/01/27 13:05:00;;;;;;;20.10;3.38;;;9.20;99.90;;;;;;5022414;28;20033;-69
2022/01/27 13:07:27;;;;;;;17.70;3.22;;;9.20;99.90;;;;;;5015599;28;20034;-69
2022/01/27 13:09:55;;;;;;;16.55;2.78;;;9.20;99.90;;;;;;5002109;28;20045;-69
2022/01/27 13:12:26;;;;;;;16.38;2.95;;;9.10;99.90;;;;;;5019547;28;20269;-69
2022/01/27 13:15:04;;;;;;;15.10;2.85;;;9.10;99.90;;;;;;5016087;28;20476;-69
2022/01/27 13:17:34;;;;;;;13.95;2.55;;;9.20;99.90;;;;;;5015180;28;20025;-70
2022/01/27 13:20:10;;;;;;;14.20;2.83;;;9.10;99.90;;;;;;5019386;28;20073;-69
2022/01/27 13:23:06;;;;;;;21.20;3.42;;;9.10;99.90;;;;;;5009780;28;20064;-69
2022/01/27 13:25:44;;;;;;;20.27;3.67;;;9.10;99.90;;;;;;5016553;28;20512;-69
2022/01/27 13:28:22;;;;;;;16.98;2.97;;;9.10;99.90;;;;;;5018310;28;20449;-69
2022/01/27 13:30:51;;;;;;;17.05;2.53;;;9.10;99.90;;;;;;5018016;28;20535;-69
2022/01/27 13:33:20;;;;;;;20.73;5.30;;;9.10;99.90;;;;;;5019024;28;20061;-69
2022/01/27 13:35:46;;;;;;;16.25;3.03;;;9.10;99.90;;;;;;5019349;28;20491;-69